createdAt,value
2017-06-19T00:01:47.142Z,97.60
2017-06-19T00:04:16.153Z,97.50
2017-06-19T00:06:45.103Z,96.80
2017-06-19T00:09:14.110Z,97.10
2017-06-19T00:11:43.081Z,96.80
2017-06-19T00:14:12.301Z,97.50
2017-06-19T00:16:41.354Z,98.30
2017-06-19T00:19:10.342Z,97.70
2017-06-19T00:21:39.493Z,97.80
2017-06-19T00:24:08.521Z,97.70
2017-06-19T00:26:37.569Z,97.60
2017-06-19T00:29:06.545Z,97.20
2017-06-19T00:31:35.922Z,97.00
2017-06-19T00:34:05.037Z,98.10
2017-06-19T00:36:33.999Z,97.80
2017-06-19T00:39:02.983Z,98.20
2017-06-19T00:41:32.047Z,98.00
2017-06-19T00:44:01.268Z,97.50
2017-06-19T00:46:30.451Z,98.00
2017-06-19T00:48:59.524Z,97.60
2017-06-19T00:51:28.528Z,97.80
2017-06-19T00:53:57.503Z,97.10
2017-06-19T00:56:26.706Z,97.00
2017-06-19T00:58:55.758Z,97.30
2017-06-19T01:01:24.882Z,97.60
2017-06-19T01:03:53.882Z,96.20
2017-06-19T01:06:22.890Z,96.40
2017-06-19T01:08:51.917Z,98.70
2017-06-19T01:11:20.891Z,98.90
2017-06-19T01:13:49.900Z,98.70
2017-06-19T01:16:18.938Z,98.20
2017-06-19T01:18:48.186Z,97.70
2017-06-19T01:21:17.179Z,98.50
2017-06-19T01:23:46.153Z,97.90
2017-06-19T01:26:15.253Z,97.40
2017-06-19T01:28:44.202Z,97.30
2017-06-19T01:31:13.373Z,97.70
2017-06-19T01:33:42.481Z,98.60
2017-06-19T01:36:11.501Z,97.60
2017-06-19T01:38:40.501Z,97.40
2017-06-19T01:41:09.522Z,97.20
2017-06-19T01:43:38.537Z,97.30
2017-06-19T01:46:07.489Z,96.90
2017-06-19T01:48:36.485Z,97.60
2017-06-19T01:51:05.498Z,99.10
2017-06-19T01:53:34.662Z,97.90
2017-06-19T01:56:04.489Z,97.50
2017-06-19T01:58:33.577Z,97.50
2017-06-19T02:01:02.583Z,97.40
2017-06-19T02:03:31.599Z,97.40
2017-06-19T02:06:00.573Z,97.30
2017-06-19T02:08:30.064Z,97.50
2017-06-19T02:10:59.072Z,97.10
2017-06-19T02:13:28.050Z,97.40
2017-06-19T02:15:57.069Z,97.90
2017-06-19T02:18:26.057Z,98.90
2017-06-19T02:20:55.337Z,99.60
2017-06-19T02:23:24.300Z,99.60
2017-06-19T02:25:53.306Z,99.90
2017-06-19T02:28:22.302Z,99.00
2017-06-19T02:30:51.693Z,97.90
2017-06-19T02:33:20.708Z,98.70
2017-06-19T02:35:49.897Z,99.30
2017-06-19T02:38:18.899Z,99.90
2017-06-19T02:40:47.907Z,98.90
2017-06-19T02:43:16.873Z,99.50
2017-06-19T02:45:45.930Z,97.70
2017-06-19T02:48:14.888Z,96.90
2017-06-19T02:50:43.881Z,97.20
2017-06-19T02:53:13.060Z,97.00
2017-06-19T02:55:42.074Z,97.30
2017-06-19T02:58:11.240Z,98.10
2017-06-19T03:00:40.213Z,98.30
2017-06-19T03:03:09.187Z,97.10
2017-06-19T03:05:38.173Z,97.40
2017-06-19T03:08:07.285Z,98.20
2017-06-19T03:10:37.551Z,98.60
2017-06-19T03:13:06.829Z,99.00
2017-06-19T03:15:35.809Z,99.90
2017-06-19T03:18:04.777Z,99.90
2017-06-19T03:20:33.905Z,99.90
2017-06-19T03:23:03.121Z,99.90
2017-06-19T03:25:32.110Z,99.90
2017-06-19T03:28:01.122Z,99.90
2017-06-19T03:30:30.127Z,99.90
2017-06-19T03:32:59.316Z,99.90
2017-06-19T03:35:28.306Z,99.90
2017-06-19T03:37:58.184Z,99.60
2017-06-19T03:40:27.155Z,99.20
2017-06-19T03:42:56.352Z,99.10
2017-06-19T03:45:25.390Z,99.10
2017-06-19T03:47:54.414Z,99.10
2017-06-19T03:50:23.382Z,98.60
2017-06-19T03:52:52.377Z,98.50
2017-06-19T03:55:21.460Z,98.50
2017-06-19T03:57:50.531Z,99.00
2017-06-19T04:00:19.499Z,98.50
2017-06-19T04:02:48.481Z,98.50
2017-06-19T04:05:17.449Z,98.50
2017-06-19T04:07:46.431Z,98.80
2017-06-19T04:10:15.455Z,98.80
2017-06-19T04:12:44.443Z,99.00
2017-06-19T04:15:13.484Z,98.80
2017-06-19T04:17:42.495Z,98.90
2017-06-19T04:20:11.512Z,98.90
2017-06-19T04:22:40.481Z,98.70
2017-06-19T04:25:09.465Z,98.90
2017-06-19T04:27:38.440Z,98.70
2017-06-19T04:30:07.411Z,98.50
2017-06-19T04:32:36.422Z,98.60
2017-06-19T04:35:05.423Z,98.20
2017-06-19T04:37:34.414Z,97.80
2017-06-19T04:40:03.836Z,97.50
2017-06-19T04:42:32.829Z,97.30
2017-06-19T04:45:01.778Z,96.50
2017-06-19T04:47:30.778Z,95.20
2017-06-19T04:50:02.975Z,93.40
2017-06-19T04:52:32.169Z,91.80
2017-06-19T04:55:01.350Z,88.90
2017-06-19T04:57:30.545Z,84.20
2017-06-19T04:59:59.576Z,80.70
2017-06-19T05:02:28.702Z,77.40
2017-06-19T05:04:57.669Z,74.70
2017-06-19T05:07:26.756Z,73.30
2017-06-19T05:09:55.861Z,70.60
2017-06-19T05:12:24.901Z,68.10
2017-06-19T05:14:53.939Z,65.60
2017-06-19T05:17:23.732Z,63.50
2017-06-19T05:19:53.230Z,61.70
2017-06-19T05:22:22.228Z,60.00
2017-06-19T05:24:51.267Z,58.50
2017-06-19T05:27:20.327Z,56.90
2017-06-19T05:29:49.286Z,55.10
2017-06-19T05:32:18.261Z,53.80
2017-06-19T05:34:47.303Z,52.50
2017-06-19T05:37:16.860Z,51.80
2017-06-19T05:39:46.028Z,50.90
2017-06-19T05:42:18.482Z,50.00
2017-06-19T05:44:47.573Z,48.40
2017-06-19T05:47:16.519Z,48.80
2017-06-19T05:49:45.541Z,49.00
2017-06-19T05:52:17.985Z,49.10
2017-06-19T05:54:46.996Z,52.10
2017-06-19T05:57:15.989Z,56.10
2017-06-19T05:59:44.966Z,62.00
2017-06-19T06:02:13.995Z,66.10
2017-06-19T06:04:43.056Z,69.90
2017-06-19T06:07:12.072Z,70.80
2017-06-19T06:09:41.124Z,71.30
2017-06-19T06:12:10.140Z,72.10
2017-06-19T06:14:39.176Z,71.40
2017-06-19T06:17:08.179Z,71.50
2017-06-19T06:19:37.209Z,68.40
2017-06-19T06:22:06.186Z,71.40
2017-06-19T06:24:35.203Z,68.00
2017-06-19T06:27:04.352Z,64.60
2017-06-19T06:29:33.654Z,59.10
2017-06-19T06:32:02.737Z,54.40
2017-06-19T06:34:31.828Z,53.20
2017-06-19T06:37:00.820Z,53.60
2017-06-19T06:39:29.840Z,49.80
2017-06-19T06:41:59.007Z,44.50
2017-06-19T06:44:28.156Z,44.00
2017-06-19T06:46:57.152Z,45.90
2017-06-19T06:49:26.154Z,43.00
2017-06-19T06:51:55.144Z,43.60
2017-06-19T06:54:24.235Z,42.40
2017-06-19T06:56:53.217Z,41.70
2017-06-19T06:59:22.317Z,45.50
2017-06-19T07:01:51.373Z,38.70
2017-06-19T07:04:20.441Z,38.30
2017-06-19T07:06:49.484Z,37.30
2017-06-19T07:09:18.544Z,38.00
2017-06-19T07:11:47.542Z,38.20
2017-06-19T07:14:16.541Z,39.80
2017-06-19T07:16:45.551Z,41.30
2017-06-19T07:19:14.561Z,43.90
2017-06-19T07:21:43.677Z,44.20
2017-06-19T07:24:12.773Z,44.00
2017-06-19T07:26:41.846Z,42.50
2017-06-19T07:29:10.909Z,41.40
2017-06-19T07:31:40.196Z,40.40
2017-06-19T07:34:09.224Z,39.00
2017-06-19T07:36:38.255Z,38.50
2017-06-19T07:39:07.266Z,40.50
2017-06-19T07:41:36.319Z,38.00
2017-06-19T07:44:05.329Z,37.90
2017-06-19T07:46:34.342Z,37.70
2017-06-19T07:49:03.366Z,39.10
2017-06-19T07:51:32.438Z,39.60
2017-06-19T07:54:01.584Z,40.90
2017-06-19T07:56:30.599Z,42.40
2017-06-19T07:58:59.623Z,42.30
2017-06-19T08:01:28.588Z,43.40
2017-06-19T08:03:57.583Z,43.60
2017-06-19T08:06:26.806Z,43.00
2017-06-19T08:08:55.806Z,44.40
2017-06-19T08:11:24.820Z,42.70
2017-06-19T08:13:53.850Z,44.40
2017-06-19T08:16:22.963Z,43.00
2017-06-19T08:18:52.032Z,38.80
2017-06-19T08:21:25.185Z,38.60
2017-06-19T08:24:09.172Z,37.10
2017-06-19T08:26:38.493Z,39.60
2017-06-19T08:29:07.499Z,38.40
2017-06-19T08:31:36.453Z,35.30
2017-06-19T08:34:05.521Z,33.30
2017-06-19T08:36:34.554Z,36.00
2017-06-19T08:39:03.903Z,34.80
2017-06-19T08:41:33.129Z,32.80
2017-06-19T08:44:02.248Z,30.70
2017-06-19T08:46:31.321Z,32.10
2017-06-19T08:49:00.445Z,30.60
2017-06-19T08:51:31.159Z,31.20
2017-06-19T08:54:02.770Z,29.60
2017-06-19T08:56:31.830Z,30.10
2017-06-19T08:59:00.907Z,27.80
2017-06-19T09:01:29.951Z,28.20
2017-06-19T09:03:59.045Z,29.80
2017-06-19T09:06:28.174Z,28.90
2017-06-19T09:09:03.889Z,27.00
2017-06-19T09:11:33.365Z,27.20
2017-06-19T09:14:02.508Z,27.10
2017-06-19T09:16:31.604Z,28.00
2017-06-19T09:19:00.589Z,28.00
2017-06-19T09:21:29.570Z,27.20
2017-06-19T09:23:58.587Z,27.10
2017-06-19T09:26:27.604Z,27.50
2017-06-19T09:28:56.654Z,28.40
2017-06-19T09:31:25.631Z,28.90
2017-06-19T09:33:55.488Z,25.70
2017-06-19T09:36:24.646Z,25.90
2017-06-19T09:38:53.669Z,25.80
2017-06-19T09:41:22.736Z,26.30
2017-06-19T09:43:51.989Z,26.00
2017-06-19T09:46:20.987Z,26.10
2017-06-19T09:48:49.949Z,27.80
2017-06-19T09:51:19.246Z,26.10
2017-06-19T09:53:48.527Z,25.40
2017-06-19T09:56:17.621Z,26.30
2017-06-19T09:58:46.644Z,25.60
2017-06-19T10:01:15.742Z,24.80
2017-06-19T10:03:45.046Z,25.70
2017-06-19T10:06:14.216Z,24.60
2017-06-19T10:08:43.442Z,26.10
2017-06-19T10:11:12.493Z,25.20
2017-06-19T10:13:41.569Z,25.50
2017-06-19T10:16:10.675Z,25.70
2017-06-19T10:18:39.739Z,25.50
2017-06-19T10:21:08.734Z,25.50
2017-06-19T10:23:37.716Z,25.20
2017-06-19T10:26:06.811Z,24.80
2017-06-19T10:28:35.804Z,25.10
2017-06-19T10:31:05.482Z,24.70
2017-06-19T10:33:34.537Z,24.60
2017-06-19T10:36:03.639Z,24.70
2017-06-19T10:38:34.094Z,23.60
2017-06-19T10:41:03.276Z,24.60
2017-06-19T10:43:32.363Z,26.00
2017-06-19T10:46:01.422Z,26.20
2017-06-19T10:48:30.421Z,26.30
2017-06-19T10:50:59.414Z,27.00
2017-06-19T10:53:28.467Z,26.70
2017-06-19T10:55:57.451Z,26.90
2017-06-19T10:58:26.429Z,27.20
2017-06-19T11:00:55.476Z,26.90
2017-06-19T11:03:24.569Z,26.50
2017-06-19T11:05:53.760Z,26.40
2017-06-19T11:08:35.675Z,27.10
2017-06-19T11:11:04.794Z,27.70
2017-06-19T11:13:33.855Z,27.90
2017-06-19T11:16:07.224Z,26.20
2017-06-19T11:18:36.388Z,27.00
2017-06-19T11:21:05.499Z,28.40
2017-06-19T11:23:34.533Z,28.10
2017-06-19T11:26:03.542Z,29.90
2017-06-19T11:28:32.533Z,29.00
2017-06-19T11:31:01.581Z,28.50
2017-06-19T11:33:30.714Z,27.60
2017-06-19T11:35:59.828Z,28.60
2017-06-19T11:38:28.869Z,27.70
2017-06-19T11:40:57.971Z,29.40
2017-06-19T11:43:27.039Z,30.30
2017-06-19T11:45:56.090Z,30.70
2017-06-19T11:48:25.215Z,30.80
2017-06-19T11:50:54.319Z,30.20
2017-06-19T11:53:23.347Z,31.30
2017-06-19T11:55:52.374Z,30.80
2017-06-19T11:58:21.440Z,31.30
2017-06-19T12:00:50.458Z,33.40
2017-06-19T12:03:19.510Z,35.00
2017-06-19T12:05:48.550Z,34.20
2017-06-19T12:08:17.589Z,35.40
2017-06-19T12:10:46.653Z,37.10
2017-06-19T12:13:15.760Z,35.90
2017-06-19T12:15:44.867Z,37.40
2017-06-19T12:18:14.943Z,37.90
2017-06-19T12:20:44.023Z,39.30
2017-06-19T12:23:13.065Z,36.10
2017-06-19T12:25:42.071Z,36.30
2017-06-19T12:28:11.106Z,35.90
2017-06-19T12:30:40.252Z,35.30
2017-06-19T12:33:09.339Z,33.50
2017-06-19T12:35:38.442Z,35.30
2017-06-19T12:38:07.747Z,33.80
2017-06-19T12:40:37.018Z,35.50
2017-06-19T12:43:06.254Z,35.30
2017-06-19T12:45:35.373Z,35.70
2017-06-19T12:48:04.362Z,37.30
2017-06-19T12:50:33.454Z,35.80
2017-06-19T12:53:02.502Z,37.70
2017-06-19T12:55:31.553Z,38.10
2017-06-19T12:58:02.571Z,37.20
2017-06-19T13:00:32.445Z,36.10
2017-06-19T13:03:01.563Z,36.10
2017-06-19T13:05:30.589Z,35.20
2017-06-19T13:07:59.670Z,36.00
2017-06-19T13:10:31.745Z,34.60
2017-06-19T13:13:00.748Z,35.70
2017-06-19T13:15:29.913Z,35.90
2017-06-19T13:17:59.194Z,36.50
2017-06-19T13:20:28.331Z,35.90
2017-06-19T13:22:57.450Z,37.30
2017-06-19T13:25:26.577Z,36.90
2017-06-19T13:27:55.710Z,37.60
2017-06-19T13:30:24.835Z,36.90
2017-06-19T13:32:53.971Z,37.20
2017-06-19T13:35:22.963Z,36.90
2017-06-19T13:37:52.445Z,38.20
2017-06-19T13:40:21.547Z,38.60
2017-06-19T13:42:50.684Z,37.90
2017-06-19T13:45:19.848Z,39.50
2017-06-19T13:47:48.895Z,37.10
2017-06-19T13:50:17.962Z,36.10
2017-06-19T13:52:47.172Z,37.40
2017-06-19T13:55:16.283Z,38.10
2017-06-19T13:57:45.454Z,38.80
2017-06-19T14:00:14.472Z,37.90
2017-06-19T14:02:43.542Z,41.90
2017-06-19T14:05:13.290Z,39.00
2017-06-19T14:07:42.384Z,37.90
2017-06-19T14:10:11.416Z,38.80
2017-06-19T14:12:40.501Z,38.70
2017-06-19T14:15:09.492Z,39.40
2017-06-19T14:17:38.506Z,39.40
2017-06-19T14:20:07.599Z,39.00
2017-06-19T14:22:36.764Z,41.50
2017-06-19T14:25:05.890Z,40.70
2017-06-19T14:27:35.009Z,40.20
2017-06-19T14:30:04.392Z,43.80
2017-06-19T14:32:33.451Z,40.00
2017-06-19T14:35:02.611Z,39.30
2017-06-19T14:37:31.634Z,39.80
2017-06-19T14:40:00.754Z,42.20
2017-06-19T14:42:29.800Z,41.60
2017-06-19T14:45:01.087Z,42.30
2017-06-19T14:47:30.427Z,41.00
2017-06-19T14:49:59.693Z,42.60
2017-06-19T14:52:28.784Z,40.70
2017-06-19T14:54:57.872Z,41.10
2017-06-19T14:57:27.019Z,44.50
2017-06-19T14:59:56.153Z,41.70
2017-06-19T15:02:25.167Z,38.70
2017-06-19T15:04:54.554Z,40.40
2017-06-19T15:07:23.737Z,40.90
2017-06-19T15:09:52.809Z,45.10
2017-06-19T15:12:21.901Z,43.30
2017-06-19T15:14:50.923Z,39.50
2017-06-19T15:17:19.958Z,40.40
2017-06-19T15:19:49.051Z,39.40
2017-06-19T15:22:22.343Z,39.70
2017-06-19T15:24:51.428Z,43.20
2017-06-19T15:27:20.543Z,41.80
2017-06-19T15:29:53.470Z,38.20
2017-06-19T15:32:22.543Z,39.90
2017-06-19T15:34:51.900Z,40.30
2017-06-19T15:37:21.041Z,40.20
2017-06-19T15:39:50.143Z,40.60
2017-06-19T15:42:19.263Z,40.90
2017-06-19T15:44:49.219Z,42.30
2017-06-19T15:47:18.306Z,42.20
2017-06-19T15:49:48.456Z,40.60
2017-06-19T15:52:17.573Z,40.30
2017-06-19T15:54:46.657Z,41.80
2017-06-19T15:57:15.835Z,41.40
2017-06-19T15:59:44.982Z,42.00
2017-06-19T16:02:14.047Z,39.40
2017-06-19T16:04:43.263Z,40.00
2017-06-19T16:07:12.433Z,40.20
2017-06-19T16:09:41.634Z,40.80
2017-06-19T16:12:15.628Z,39.80
2017-06-19T16:14:44.704Z,41.70
2017-06-19T16:17:13.735Z,42.50
2017-06-19T16:19:42.896Z,39.80
2017-06-19T16:22:11.907Z,41.00
2017-06-19T16:24:41.003Z,40.20
2017-06-19T16:27:10.072Z,42.30
2017-06-19T16:29:39.410Z,41.50
2017-06-19T16:32:08.688Z,42.20
2017-06-19T16:34:37.768Z,43.20
2017-06-19T16:37:06.915Z,45.40
2017-06-19T16:39:36.918Z,42.40
2017-06-19T16:42:05.904Z,42.80
2017-06-19T16:44:34.979Z,41.00
2017-06-19T16:47:04.060Z,42.40
2017-06-19T16:49:33.050Z,40.60
2017-06-19T16:52:02.094Z,42.00
2017-06-19T16:54:31.141Z,41.90
2017-06-19T16:57:00.188Z,42.90
2017-06-19T16:59:29.256Z,42.80
2017-06-19T17:01:58.265Z,43.20
2017-06-19T17:04:27.409Z,43.60
2017-06-19T17:06:56.506Z,42.30
2017-06-19T17:09:25.638Z,44.20
2017-06-19T17:11:54.834Z,45.00
2017-06-19T17:14:23.952Z,44.70
2017-06-19T17:16:53.103Z,43.40
2017-06-19T17:19:22.487Z,42.00
2017-06-19T17:21:51.530Z,43.70
2017-06-19T17:24:20.565Z,44.60
2017-06-19T17:26:49.711Z,43.90
2017-06-19T17:29:18.974Z,43.70
2017-06-19T17:31:48.022Z,42.90
2017-06-19T17:34:19.216Z,43.50
2017-06-19T17:36:48.372Z,44.10
2017-06-19T17:39:18.402Z,43.80
2017-06-19T17:41:47.485Z,43.60
2017-06-19T17:44:16.556Z,43.60
2017-06-19T17:46:45.580Z,43.90
2017-06-19T17:49:14.688Z,46.00
2017-06-19T17:51:43.739Z,45.60
2017-06-19T17:54:12.745Z,45.80
2017-06-19T17:56:41.735Z,48.80
2017-06-19T17:59:10.754Z,47.80
2017-06-19T18:01:39.765Z,48.20
2017-06-19T18:04:08.797Z,44.80
2017-06-19T18:06:37.851Z,49.90
2017-06-19T18:09:07.319Z,52.40
2017-06-19T18:11:36.341Z,54.10
2017-06-19T18:14:05.395Z,54.50
2017-06-19T18:16:34.354Z,57.00
2017-06-19T18:19:03.365Z,57.80
2017-06-19T18:21:32.326Z,54.70
2017-06-19T18:24:01.323Z,56.70
2017-06-19T18:26:30.352Z,55.30
2017-06-19T18:28:59.404Z,58.20
2017-06-19T18:31:28.423Z,58.80
2017-06-19T18:33:57.474Z,57.50
2017-06-19T18:36:26.478Z,57.60
2017-06-19T18:38:55.475Z,58.30
2017-06-19T18:41:24.505Z,59.50
2017-06-19T18:43:53.636Z,60.00
2017-06-19T18:46:22.699Z,62.40
2017-06-19T18:48:51.753Z,60.10
2017-06-19T18:51:20.721Z,60.00
2017-06-19T18:53:49.792Z,59.20
2017-06-19T18:56:18.785Z,59.00
2017-06-19T18:58:47.843Z,59.30
2017-06-19T19:01:20.295Z,59.20
2017-06-19T19:03:49.406Z,59.20
2017-06-19T19:06:18.486Z,59.60
2017-06-19T19:08:47.519Z,59.10
2017-06-19T19:11:16.546Z,61.40
2017-06-19T19:13:45.583Z,62.00
2017-06-19T19:16:14.583Z,60.70
2017-06-19T19:18:43.670Z,61.50
2017-06-19T19:21:12.718Z,63.10
2017-06-19T19:23:41.792Z,63.80
2017-06-19T19:26:10.818Z,64.60
2017-06-19T19:28:40.137Z,65.40
2017-06-19T19:31:09.283Z,66.40
2017-06-19T19:33:38.406Z,65.80
2017-06-19T19:36:07.512Z,66.60
2017-06-19T19:38:36.557Z,66.80
2017-06-19T19:41:05.605Z,66.80
2017-06-19T19:43:34.580Z,66.60
2017-06-19T19:46:03.688Z,67.20
2017-06-19T19:48:32.619Z,68.50
2017-06-19T19:51:01.626Z,68.30
2017-06-19T19:53:30.603Z,69.00
2017-06-19T19:55:59.785Z,69.20
2017-06-19T19:58:28.928Z,70.30
2017-06-19T20:00:57.987Z,69.20
2017-06-19T20:03:27.061Z,67.70
2017-06-19T20:05:56.042Z,67.40
2017-06-19T20:08:25.122Z,67.10
2017-06-19T20:10:54.726Z,68.40
2017-06-19T20:13:23.784Z,68.00
2017-06-19T20:15:52.986Z,69.10
2017-06-19T20:18:21.931Z,69.30
2017-06-19T20:20:50.954Z,69.30
2017-06-19T20:23:19.961Z,69.20
2017-06-19T20:25:48.961Z,70.70
2017-06-19T20:28:17.957Z,71.10
2017-06-19T20:30:46.976Z,70.40
2017-06-19T20:33:15.986Z,69.20
2017-06-19T20:35:44.999Z,69.10
2017-06-19T20:38:14.055Z,70.20
2017-06-19T20:40:43.085Z,70.40
2017-06-19T20:43:12.126Z,72.00
2017-06-19T20:45:41.164Z,71.90
2017-06-19T20:48:10.221Z,72.30
2017-06-19T20:50:39.197Z,72.50
2017-06-19T20:53:08.280Z,72.60
2017-06-19T20:55:38.707Z,72.80
2017-06-19T20:58:07.934Z,73.90
2017-06-19T21:00:37.697Z,73.70
2017-06-19T21:03:06.906Z,73.40
2017-06-19T21:05:35.895Z,73.90
2017-06-19T21:08:04.926Z,73.80
2017-06-19T21:10:33.927Z,74.20
2017-06-19T21:13:02.927Z,73.70
2017-06-19T21:15:31.955Z,74.20
2017-06-19T21:18:00.975Z,74.70
2017-06-19T21:20:30.012Z,75.80
2017-06-19T21:22:59.021Z,76.20
2017-06-19T21:25:27.995Z,74.60
2017-06-19T21:27:56.990Z,75.00
2017-06-19T21:30:25.993Z,75.00
2017-06-19T21:32:54.999Z,76.10
2017-06-19T21:35:24.055Z,76.30
2017-06-19T21:37:53.106Z,75.10
2017-06-19T21:40:22.153Z,74.80
2017-06-19T21:42:51.122Z,74.70
2017-06-19T21:45:20.199Z,75.20
2017-06-19T21:47:49.246Z,75.50
2017-06-19T21:50:18.288Z,76.00
2017-06-19T21:52:47.272Z,77.20
2017-06-19T21:55:16.294Z,76.60
2017-06-19T21:57:45.256Z,76.90
2017-06-19T22:00:14.230Z,77.30
2017-06-19T22:02:43.241Z,76.40
2017-06-19T22:05:12.325Z,76.80
2017-06-19T22:07:41.496Z,77.90
2017-06-19T22:10:10.589Z,77.30
2017-06-19T22:12:39.723Z,77.60
2017-06-19T22:15:09.007Z,78.00
2017-06-19T22:17:38.196Z,77.90
2017-06-19T22:20:07.525Z,78.80
2017-06-19T22:22:41.571Z,79.60
2017-06-19T22:25:10.625Z,80.30
2017-06-19T22:27:39.700Z,80.70
2017-06-19T22:30:08.782Z,81.60
2017-06-19T22:32:37.809Z,81.60
2017-06-19T22:35:06.826Z,82.10
2017-06-19T22:37:35.826Z,82.30
2017-06-19T22:40:04.839Z,82.00
2017-06-19T22:42:33.832Z,82.40
2017-06-19T22:45:02.848Z,82.60
2017-06-19T22:47:31.929Z,82.70
2017-06-19T22:50:00.876Z,83.00
2017-06-19T22:52:30.056Z,83.60
2017-06-19T22:54:59.072Z,82.90
2017-06-19T22:57:28.176Z,83.80
2017-06-19T22:59:57.232Z,84.90
2017-06-19T23:02:26.190Z,83.90
2017-06-19T23:04:55.183Z,84.50
2017-06-19T23:07:24.209Z,84.50
2017-06-19T23:09:53.351Z,84.10
2017-06-19T23:12:22.337Z,84.50
2017-06-19T23:14:51.365Z,84.40
2017-06-19T23:17:20.408Z,84.20
2017-06-19T23:19:49.430Z,84.70
2017-06-19T23:22:18.455Z,84.90
2017-06-19T23:24:47.493Z,85.30
2017-06-19T23:27:16.522Z,85.80
2017-06-19T23:29:45.728Z,86.30
2017-06-19T23:32:14.667Z,87.60
2017-06-19T23:34:43.665Z,87.30
2017-06-19T23:37:12.646Z,87.70
2017-06-19T23:39:41.667Z,87.00
2017-06-19T23:42:10.621Z,87.50
2017-06-19T23:44:39.626Z,87.90
2017-06-19T23:47:08.690Z,88.10
2017-06-19T23:49:38.125Z,88.80
2017-06-19T23:52:07.100Z,88.50
2017-06-19T23:54:36.054Z,88.20
2017-06-19T23:57:05.054Z,88.50
2017-06-19T23:59:34.029Z,88.30
